createdAt,value
2023-05-15T00:01:30.906Z,4.60
2023-05-15T00:03:57.506Z,6.00
2023-05-15T00:06:24.200Z,4.33
2023-05-15T00:12:31.405Z,4.67
2023-05-15T00:14:58.011Z,4.77
2023-05-15T00:17:25.885Z,5.80
2023-05-15T00:19:57.649Z,4.67
2023-05-15T00:22:24.432Z,7.60
2023-05-15T00:24:51.048Z,5.00
2023-05-15T00:27:17.726Z,6.10
2023-05-15T00:29:44.353Z,9.30
2023-05-15T00:32:10.930Z,11.80
2023-05-15T00:34:37.525Z,10.07
2023-05-15T00:37:04.228Z,10.63
2023-05-15T00:39:30.825Z,7.77
2023-05-15T00:41:59.574Z,14.73
2023-05-15T00:44:29.885Z,8.80
2023-05-15T00:46:58.117Z,12.57
2023-05-15T00:49:27.620Z,11.53
2023-05-15T00:51:54.290Z,7.37
2023-05-15T00:54:20.979Z,8.53
2023-05-15T00:56:48.501Z,20.90
2023-05-15T00:59:16.156Z,8.27
2023-05-15T01:01:45.270Z,7.70
2023-05-15T01:04:12.149Z,11.37
2023-05-15T01:06:38.784Z,9.27
2023-05-15T01:09:08.367Z,8.70
2023-05-15T01:11:38.192Z,7.80
2023-05-15T01:14:07.058Z,7.50
2023-05-15T01:16:34.447Z,9.63
2023-05-15T01:19:01.134Z,8.13
2023-05-15T01:21:37.465Z,11.33
2023-05-15T01:27:44.630Z,10.70
2023-05-15T01:30:18.710Z,14.10
2023-05-15T01:33:05.489Z,9.53
2023-05-15T01:35:49.443Z,10.87
2023-05-15T01:38:22.036Z,7.83
2023-05-15T01:40:52.764Z,7.97
2023-05-15T01:43:24.395Z,8.30
2023-05-15T01:45:51.113Z,7.77
2023-05-15T01:48:19.413Z,9.03
2023-05-15T01:50:47.400Z,9.27
2023-05-15T01:53:15.209Z,8.27
2023-05-15T01:55:42.630Z,8.43
2023-05-15T01:58:10.159Z,8.47
2023-05-15T02:00:37.883Z,7.90
2023-05-15T02:03:07.058Z,11.70
2023-05-15T02:05:35.378Z,7.83
2023-05-15T02:08:04.656Z,6.70
2023-05-15T02:10:33.020Z,7.30
2023-05-15T02:13:00.958Z,7.17
2023-05-15T02:15:29.689Z,11.33
2023-05-15T02:17:56.818Z,7.60
2023-05-15T02:20:23.566Z,7.60
2023-05-15T02:22:50.183Z,7.53
2023-05-15T02:25:16.895Z,7.17
2023-05-15T02:27:51.446Z,7.47
2023-05-15T02:30:48.547Z,10.50
2023-05-15T02:33:38.444Z,6.90
2023-05-15T02:36:07.987Z,9.37
2023-05-15T02:38:55.607Z,8.20
2023-05-15T02:41:23.623Z,7.30
2023-05-15T02:43:52.277Z,8.50
2023-05-15T02:46:22.469Z,11.10
2023-05-15T02:48:50.644Z,8.73
2023-05-15T02:51:17.418Z,11.40
2023-05-15T02:53:44.359Z,9.73
2023-05-15T02:56:10.953Z,9.37
2023-05-15T02:58:39.224Z,8.77
2023-05-15T03:01:06.317Z,10.40
2023-05-15T03:03:33.181Z,9.17
2023-05-15T03:06:02.860Z,10.27
2023-05-15T03:08:29.521Z,9.00
2023-05-15T03:10:56.199Z,10.20
2023-05-15T03:13:22.914Z,8.40
2023-05-15T03:15:49.559Z,9.40
2023-05-15T03:18:18.996Z,10.60
2023-05-15T03:20:48.402Z,13.37
2023-05-15T03:23:15.049Z,9.97
2023-05-15T03:25:41.583Z,9.40
2023-05-15T03:28:08.361Z,10.63
2023-05-15T03:30:35.045Z,9.33
2023-05-15T03:33:04.116Z,9.37
2023-05-15T03:35:32.518Z,11.97
2023-05-15T03:37:59.306Z,9.73
2023-05-15T03:40:26.082Z,12.73
2023-05-15T03:42:53.609Z,13.37
2023-05-15T03:45:21.249Z,9.63
2023-05-15T03:47:48.585Z,11.50
2023-05-15T03:50:16.333Z,9.40
2023-05-15T03:52:43.209Z,12.73
2023-05-15T03:55:10.002Z,9.63
2023-05-15T03:57:36.711Z,16.97
2023-05-15T04:00:09.743Z,15.43
2023-05-15T04:02:37.204Z,11.83
2023-05-15T04:05:05.444Z,11.87
2023-05-15T04:07:34.453Z,11.60
2023-05-15T04:10:02.022Z,11.57
2023-05-15T04:12:34.038Z,10.97
2023-05-15T04:15:21.701Z,13.20
2023-05-15T04:17:50.711Z,11.43
2023-05-15T04:20:19.594Z,12.17
2023-05-15T04:22:46.545Z,10.33
2023-05-15T04:25:14.777Z,15.20
2023-05-15T04:27:42.736Z,14.60
2023-05-15T04:30:10.643Z,13.30
2023-05-15T04:32:38.278Z,18.33
2023-05-15T04:35:06.391Z,19.03
2023-05-15T04:37:33.030Z,22.23
2023-05-15T04:39:59.959Z,21.50
2023-05-15T04:42:26.869Z,21.57
2023-05-15T04:44:53.796Z,17.83
2023-05-15T04:47:20.736Z,13.53
2023-05-15T04:49:48.191Z,17.30
2023-05-15T04:52:14.752Z,16.87
2023-05-15T04:54:42.208Z,13.63
2023-05-15T04:57:09.359Z,14.77
2023-05-15T04:59:36.388Z,13.87
2023-05-15T05:02:03.471Z,14.23
2023-05-15T05:04:30.035Z,13.87
2023-05-15T05:06:56.853Z,10.93
2023-05-15T05:09:23.605Z,13.50
2023-05-15T05:11:50.335Z,10.90
2023-05-15T05:14:17.029Z,17.00
2023-05-15T05:16:46.600Z,11.73
2023-05-15T05:19:13.338Z,12.70
2023-05-15T05:21:39.989Z,10.80
2023-05-15T05:24:06.687Z,11.07
2023-05-15T05:26:33.359Z,11.33
2023-05-15T05:29:00.010Z,11.27
2023-05-15T05:31:26.700Z,9.17
2023-05-15T05:33:53.351Z,9.87
2023-05-15T05:36:20.028Z,10.83
2023-05-15T05:38:46.814Z,9.07
2023-05-15T05:41:13.515Z,9.63
2023-05-15T05:43:40.096Z,9.30
2023-05-15T05:46:06.680Z,10.67
2023-05-15T05:48:33.362Z,8.67
2023-05-15T05:50:59.978Z,9.13
2023-05-15T05:53:26.642Z,7.70
2023-05-15T05:55:53.972Z,12.90
2023-05-15T05:58:25.486Z,10.43
2023-05-15T06:00:53.307Z,7.47
2023-05-15T06:03:21.053Z,7.37
2023-05-15T06:05:48.709Z,10.30
2023-05-15T06:08:15.495Z,8.60
2023-05-15T06:10:42.483Z,13.03
2023-05-15T06:13:09.248Z,8.07
2023-05-15T06:15:35.923Z,9.17
2023-05-15T06:18:02.597Z,10.93
2023-05-15T06:20:29.385Z,11.30
2023-05-15T06:22:56.185Z,13.13
2023-05-15T06:25:22.911Z,9.47
2023-05-15T06:27:49.625Z,11.73
2023-05-15T06:30:16.347Z,9.27
2023-05-15T06:32:42.996Z,11.00
2023-05-15T06:35:10.449Z,10.13
2023-05-15T06:37:37.730Z,11.37
2023-05-15T06:40:06.079Z,10.43
2023-05-15T06:42:33.256Z,11.10
2023-05-15T06:45:00.291Z,9.47
2023-05-15T06:47:27.036Z,8.73
2023-05-15T06:49:55.494Z,5.93
2023-05-15T06:52:22.142Z,7.60
2023-05-15T06:54:48.769Z,12.33
2023-05-15T06:57:15.826Z,11.53
2023-05-15T06:59:42.498Z,8.50
2023-05-15T07:02:09.331Z,6.67
2023-05-15T07:04:36.227Z,9.43
2023-05-15T07:07:02.943Z,9.90
2023-05-15T07:09:29.597Z,8.43
2023-05-15T07:11:56.166Z,7.77
2023-05-15T07:14:24.588Z,11.73
2023-05-15T07:16:51.280Z,5.37
2023-05-15T07:19:19.452Z,5.47
2023-05-15T07:21:46.053Z,5.87
2023-05-15T07:24:12.664Z,7.30
2023-05-15T07:26:46.930Z,7.03
2023-05-15T07:29:23.989Z,6.63
2023-05-15T07:31:50.764Z,8.10
2023-05-15T07:34:17.503Z,7.20
2023-05-15T07:36:44.168Z,9.93
2023-05-15T07:39:10.867Z,9.43
2023-05-15T07:41:37.531Z,8.03
2023-05-15T07:44:04.256Z,7.97
2023-05-15T07:46:31.007Z,9.10
2023-05-15T07:48:57.735Z,8.17
2023-05-15T07:51:24.388Z,14.67
2023-05-15T07:53:51.010Z,9.40
2023-05-15T07:56:17.753Z,13.70
2023-05-15T07:58:44.365Z,13.50
2023-05-15T08:01:11.378Z,12.57
2023-05-15T08:03:38.123Z,13.00
2023-05-15T08:06:05.159Z,13.60
2023-05-15T08:08:31.798Z,14.23
2023-05-15T08:10:58.414Z,15.03
2023-05-15T08:13:25.088Z,13.63
2023-05-15T08:15:51.756Z,12.30
2023-05-15T08:18:18.457Z,14.03
2023-05-15T08:20:45.026Z,12.27
2023-05-15T08:23:14.300Z,13.23
2023-05-15T08:25:40.942Z,14.73
2023-05-15T08:28:07.557Z,13.40
2023-05-15T08:30:34.255Z,16.10
2023-05-15T08:33:00.879Z,13.33
2023-05-15T08:35:27.693Z,17.60
2023-05-15T08:37:54.463Z,14.20
2023-05-15T08:40:34.416Z,15.53
2023-05-15T08:43:15.070Z,18.00
2023-05-15T08:45:42.237Z,17.17
2023-05-15T08:48:13.890Z,18.50
2023-05-15T08:50:41.644Z,19.70
2023-05-15T08:53:08.557Z,13.50
2023-05-15T08:55:35.396Z,17.47
2023-05-15T08:58:02.915Z,12.57
2023-05-15T09:00:30.838Z,16.33
2023-05-15T09:03:01.342Z,12.80
2023-05-15T09:05:29.789Z,14.50
2023-05-15T09:07:59.137Z,15.60
2023-05-15T09:10:25.826Z,16.07
2023-05-15T09:12:52.529Z,16.73
2023-05-15T09:15:25.534Z,14.03
2023-05-15T09:17:52.735Z,16.00
2023-05-15T09:20:25.441Z,18.03
2023-05-15T09:22:52.130Z,14.30
2023-05-15T09:25:38.322Z,16.43
2023-05-15T09:28:06.468Z,17.80
2023-05-15T09:30:34.858Z,18.30
2023-05-15T09:33:05.623Z,19.30
2023-05-15T09:35:35.431Z,16.20
2023-05-15T09:38:04.706Z,14.03
2023-05-15T09:40:32.608Z,14.90
2023-05-15T09:42:59.799Z,13.07
2023-05-15T09:45:29.917Z,16.57
2023-05-15T09:47:57.644Z,18.67
2023-05-15T09:50:36.868Z,16.30
2023-05-15T09:53:04.814Z,12.57
2023-05-15T09:55:36.292Z,14.87
2023-05-15T09:58:14.519Z,20.00
2023-05-15T10:00:48.084Z,14.87
2023-05-15T10:03:17.405Z,11.30
2023-05-15T10:05:44.447Z,17.60
2023-05-15T10:08:11.885Z,12.47
2023-05-15T10:10:38.810Z,15.30
2023-05-15T10:13:08.171Z,13.17
2023-05-15T10:15:35.737Z,16.20
2023-05-15T10:18:05.053Z,17.17
2023-05-15T10:20:35.550Z,17.63
2023-05-15T10:23:04.666Z,19.53
2023-05-15T10:25:46.319Z,16.87
2023-05-15T10:28:14.246Z,13.73
2023-05-15T10:30:43.039Z,14.20
2023-05-15T10:33:11.562Z,14.80
2023-05-15T10:35:42.615Z,14.83
2023-05-15T10:38:11.157Z,14.90
2023-05-15T10:40:39.266Z,16.50
2023-05-15T10:43:06.406Z,12.57
2023-05-15T10:45:35.461Z,15.10
2023-05-15T10:48:05.693Z,17.00
2023-05-15T10:50:32.663Z,17.67
2023-05-15T10:53:00.178Z,14.63
2023-05-15T10:55:26.946Z,14.07
2023-05-15T10:57:55.008Z,12.20
2023-05-15T11:00:31.277Z,13.67
2023-05-15T11:02:58.884Z,15.23
2023-05-15T11:05:26.194Z,13.67
2023-05-15T11:08:25.975Z,17.23
2023-05-15T11:10:53.701Z,15.03
2023-05-15T11:13:20.806Z,15.27
2023-05-15T11:15:48.355Z,24.60
2023-05-15T11:18:15.977Z,15.73
2023-05-15T11:20:54.657Z,20.83
2023-05-15T11:23:22.268Z,19.60
2023-05-15T11:25:58.806Z,20.63
2023-05-15T11:28:29.357Z,18.57
2023-05-15T11:31:06.871Z,14.93
2023-05-15T11:33:33.838Z,14.03
2023-05-15T11:36:01.822Z,15.97
2023-05-15T11:38:28.529Z,18.27
2023-05-15T11:40:58.746Z,22.50
2023-05-15T11:43:29.520Z,14.47
2023-05-15T11:46:07.302Z,16.73
2023-05-15T11:48:39.698Z,13.20
2023-05-15T11:51:17.396Z,14.77
2023-05-15T11:53:44.310Z,10.83
2023-05-15T11:56:19.437Z,16.00
2023-05-15T11:58:49.569Z,15.63
2023-05-15T12:01:16.538Z,19.90
2023-05-15T12:03:43.476Z,11.10
2023-05-15T12:06:10.848Z,12.97
2023-05-15T12:08:38.380Z,15.70
2023-05-15T12:11:06.063Z,15.60
2023-05-15T12:13:33.793Z,12.03
2023-05-15T12:16:02.521Z,16.17
2023-05-15T12:18:33.404Z,12.00
2023-05-15T12:21:00.748Z,16.20
2023-05-15T12:23:28.593Z,15.47
2023-05-15T12:26:01.339Z,15.43
2023-05-15T12:28:29.830Z,11.70
2023-05-15T12:30:57.150Z,12.33
2023-05-15T12:33:25.023Z,11.67
2023-05-15T12:35:58.904Z,15.87
2023-05-15T12:38:27.804Z,14.57
2023-05-15T12:40:54.821Z,11.60
2023-05-15T12:43:25.109Z,11.63
2023-05-15T12:45:56.073Z,11.67
2023-05-15T12:48:23.210Z,15.20
2023-05-15T12:50:52.901Z,14.00
2023-05-15T12:53:21.584Z,12.27
2023-05-15T12:55:48.960Z,19.40
2023-05-15T12:58:18.859Z,14.63
2023-05-15T13:00:50.335Z,12.33
2023-05-15T13:03:21.559Z,13.20
2023-05-15T13:05:48.454Z,22.37
2023-05-15T13:08:17.531Z,17.53
2023-05-15T13:10:45.412Z,15.57
2023-05-15T13:13:12.216Z,13.17
2023-05-15T13:15:42.229Z,9.87
2023-05-15T13:18:13.725Z,12.43
2023-05-15T13:20:43.345Z,18.00
2023-05-15T13:23:14.151Z,16.70
2023-05-15T13:25:40.909Z,19.53
2023-05-15T13:28:08.594Z,14.00
2023-05-15T13:30:35.823Z,11.40
2023-05-15T13:33:03.557Z,19.83
2023-05-15T13:35:30.438Z,14.83
2023-05-15T13:37:57.399Z,10.67
2023-05-15T13:40:24.606Z,9.73
2023-05-15T13:42:51.425Z,12.00
2023-05-15T13:45:18.228Z,11.33
2023-05-15T13:47:45.188Z,14.10
2023-05-15T13:50:15.651Z,14.50
2023-05-15T13:52:44.430Z,17.67
2023-05-15T13:55:11.433Z,9.83
2023-05-15T13:57:39.589Z,11.67
2023-05-15T14:00:07.926Z,11.43
2023-05-15T14:02:34.631Z,12.67
2023-05-15T14:05:01.827Z,15.37
2023-05-15T14:07:31.858Z,11.30
2023-05-15T14:09:58.555Z,12.03
2023-05-15T14:12:25.473Z,13.37
2023-05-15T14:14:52.165Z,9.10
2023-05-15T14:17:18.764Z,9.27
2023-05-15T14:19:45.589Z,15.17
2023-05-15T14:22:12.272Z,16.57
2023-05-15T14:24:38.947Z,12.67
2023-05-15T14:27:06.044Z,13.77
2023-05-15T14:29:32.722Z,10.10
2023-05-15T14:31:59.374Z,10.60
2023-05-15T14:34:26.130Z,17.63
2023-05-15T14:36:52.757Z,8.50
2023-05-15T14:39:19.552Z,10.83
2023-05-15T14:41:46.280Z,14.33
2023-05-15T14:44:12.988Z,8.53
2023-05-15T14:46:42.593Z,12.50
2023-05-15T14:49:09.439Z,13.53
2023-05-15T14:51:36.094Z,15.67
2023-05-15T14:54:04.399Z,14.90
2023-05-15T14:56:31.654Z,16.03
2023-05-15T14:58:58.277Z,19.10
2023-05-15T15:01:25.001Z,13.67
2023-05-15T15:03:51.874Z,10.77
2023-05-15T15:06:18.719Z,13.20
2023-05-15T15:08:45.276Z,9.43
2023-05-15T15:11:12.034Z,13.97
2023-05-15T15:13:38.650Z,8.30
2023-05-15T15:16:05.400Z,16.80
2023-05-15T15:18:32.106Z,10.90
2023-05-15T15:20:58.807Z,8.77
2023-05-15T15:23:25.486Z,8.83
2023-05-15T15:25:52.134Z,11.00
2023-05-15T15:28:18.756Z,14.90
2023-05-15T15:30:45.555Z,9.70
2023-05-15T15:33:12.179Z,6.57
2023-05-15T15:35:38.901Z,8.20
2023-05-15T15:38:05.699Z,8.70
2023-05-15T15:40:32.807Z,8.20
2023-05-15T15:43:01.551Z,12.30
2023-05-15T15:45:28.272Z,5.97
2023-05-15T15:47:55.059Z,13.23
2023-05-15T15:50:21.722Z,13.33
2023-05-15T15:52:48.424Z,7.43
2023-05-15T15:55:15.059Z,9.60
2023-05-15T15:57:41.687Z,6.07
2023-05-15T16:00:09.586Z,13.33
2023-05-15T16:02:36.816Z,6.63
2023-05-15T16:05:04.010Z,12.53
2023-05-15T16:07:30.774Z,9.67
2023-05-15T16:10:10.882Z,11.77
2023-05-15T16:12:40.847Z,12.10
2023-05-15T16:15:21.666Z,9.93
2023-05-15T16:17:54.340Z,10.33
2023-05-15T16:20:21.962Z,9.27
2023-05-15T16:22:48.628Z,11.53
2023-05-15T16:25:15.287Z,9.40
2023-05-15T16:27:41.895Z,7.40
2023-05-15T16:30:09.440Z,16.00
2023-05-15T16:32:36.301Z,10.83
2023-05-15T16:35:03.444Z,8.27
2023-05-15T16:37:30.059Z,9.97
2023-05-15T16:39:57.867Z,8.53
2023-05-15T16:42:24.524Z,11.80
2023-05-15T16:44:51.407Z,11.40
2023-05-15T16:47:18.016Z,11.33
2023-05-15T16:49:45.794Z,13.03
2023-05-15T16:52:13.557Z,22.10
2023-05-15T16:54:41.861Z,24.77
2023-05-15T16:57:08.481Z,26.90
2023-05-15T16:59:35.292Z,33.33
2023-05-15T17:02:02.000Z,56.03
2023-05-15T17:04:31.457Z,64.17
2023-05-15T17:06:59.466Z,52.47
2023-05-15T17:09:26.334Z,26.23
2023-05-15T17:11:53.009Z,20.03
2023-05-15T17:14:19.748Z,13.27
2023-05-15T17:16:46.400Z,21.07
2023-05-15T17:19:13.282Z,12.20
2023-05-15T17:21:39.992Z,13.20
2023-05-15T17:24:06.846Z,14.47
2023-05-15T17:26:33.439Z,14.83
2023-05-15T17:29:00.040Z,13.93
2023-05-15T17:31:28.881Z,15.93
2023-05-15T17:33:55.637Z,14.67
2023-05-15T17:36:22.314Z,13.30
2023-05-15T17:38:48.918Z,12.37
2023-05-15T17:41:15.610Z,13.10
2023-05-15T17:43:42.191Z,11.83
2023-05-15T17:46:09.022Z,22.43
2023-05-15T17:48:36.077Z,16.07
2023-05-15T17:51:02.819Z,16.83
2023-05-15T17:53:29.502Z,13.00
2023-05-15T17:55:56.381Z,16.90
2023-05-15T17:58:23.024Z,15.20
2023-05-15T18:00:51.664Z,14.97
2023-05-15T18:03:18.362Z,15.27
2023-05-15T18:05:46.769Z,11.20
2023-05-15T18:08:13.923Z,11.87
2023-05-15T18:10:40.570Z,15.70
2023-05-15T18:13:07.197Z,13.93
2023-05-15T18:15:35.262Z,14.80
2023-05-15T18:18:02.609Z,15.97
2023-05-15T18:20:29.625Z,11.97
2023-05-15T18:22:56.315Z,13.47
2023-05-15T18:25:23.076Z,13.50
2023-05-15T18:27:49.755Z,16.97
2023-05-15T18:30:16.552Z,13.27
2023-05-15T18:32:43.205Z,11.10
2023-05-15T18:35:12.013Z,16.70
2023-05-15T18:37:41.361Z,13.20
2023-05-15T18:40:08.765Z,13.03
2023-05-15T18:42:35.539Z,13.17
2023-05-15T18:45:02.345Z,11.20
2023-05-15T18:47:29.094Z,16.57
2023-05-15T18:49:55.974Z,13.40
2023-05-15T18:52:22.895Z,13.57
2023-05-15T18:54:49.566Z,10.53
2023-05-15T18:57:16.209Z,11.93
2023-05-15T18:59:42.853Z,11.27
2023-05-15T19:02:12.250Z,12.50
2023-05-15T19:04:38.862Z,13.37
2023-05-15T19:07:06.369Z,15.60
2023-05-15T19:09:33.018Z,17.07
2023-05-15T19:12:00.276Z,17.17
2023-05-15T19:14:26.936Z,14.97
2023-05-15T19:16:54.102Z,13.90
2023-05-15T19:19:23.806Z,12.47
2023-05-15T19:21:51.934Z,13.23
2023-05-15T19:24:19.064Z,15.20
2023-05-15T19:26:45.857Z,16.23
2023-05-15T19:29:12.567Z,14.97
2023-05-15T19:31:39.473Z,11.73
2023-05-15T19:34:06.275Z,14.03
2023-05-15T19:36:32.892Z,15.57
2023-05-15T19:39:04.333Z,16.27
2023-05-15T19:41:30.957Z,15.17
2023-05-15T19:43:57.585Z,14.93
2023-05-15T19:46:24.372Z,17.03
2023-05-15T19:48:51.005Z,18.00
2023-05-15T19:51:18.853Z,15.43
2023-05-15T19:53:45.682Z,13.30
2023-05-15T19:56:13.843Z,13.70
2023-05-15T19:58:40.511Z,12.97
2023-05-15T20:01:07.745Z,19.23
2023-05-15T20:03:34.611Z,14.83
2023-05-15T20:06:02.590Z,16.30
2023-05-15T20:08:29.581Z,18.13
2023-05-15T20:10:57.037Z,15.90
2023-05-15T20:13:24.235Z,15.40
2023-05-15T20:15:57.072Z,16.07
2023-05-15T20:18:25.170Z,21.63
2023-05-15T20:20:54.506Z,16.27
2023-05-15T20:23:22.085Z,15.50
2023-05-15T20:25:50.769Z,15.37
2023-05-15T20:28:17.990Z,18.90
2023-05-15T20:30:47.343Z,17.33
2023-05-15T20:33:14.602Z,16.60
2023-05-15T20:35:42.769Z,16.53
2023-05-15T20:38:10.517Z,14.13
2023-05-15T20:40:37.510Z,12.93
2023-05-15T20:43:04.679Z,24.83
2023-05-15T20:45:34.174Z,13.33
2023-05-15T20:48:01.248Z,15.60
2023-05-15T20:50:28.419Z,13.67
2023-05-15T20:52:55.760Z,16.63
2023-05-15T20:55:22.710Z,13.60
2023-05-15T20:57:50.368Z,15.93
2023-05-15T21:00:18.233Z,15.47
2023-05-15T21:02:46.581Z,18.43
2023-05-15T21:05:13.805Z,15.73
2023-05-15T21:07:40.853Z,16.73
2023-05-15T21:10:07.941Z,13.37
2023-05-15T21:12:34.613Z,17.27
2023-05-15T21:15:02.164Z,18.90
2023-05-15T21:17:29.014Z,17.77
2023-05-15T21:19:57.726Z,17.80
2023-05-15T21:22:24.931Z,18.43
2023-05-15T21:24:51.827Z,17.10
2023-05-15T21:27:18.651Z,19.17
2023-05-15T21:29:45.389Z,16.00
2023-05-15T21:32:12.023Z,17.60
2023-05-15T21:34:39.788Z,14.50
2023-05-15T21:37:06.448Z,12.57
2023-05-15T21:39:33.156Z,20.50
2023-05-15T21:41:59.790Z,13.33
2023-05-15T21:44:26.415Z,16.63
2023-05-15T21:46:53.368Z,19.83
2023-05-15T21:49:20.005Z,13.87
2023-05-15T21:51:46.809Z,19.83
2023-05-15T21:54:13.514Z,12.57
2023-05-15T21:56:41.173Z,14.23
2023-05-15T21:59:08.216Z,15.57
2023-05-15T22:01:36.284Z,19.33
2023-05-15T22:04:03.332Z,14.20
2023-05-15T22:06:29.957Z,15.30
2023-05-15T22:08:57.558Z,15.33
2023-05-15T22:11:25.560Z,12.63
2023-05-15T22:13:52.175Z,13.50
2023-05-15T22:16:19.410Z,16.20
2023-05-15T22:18:47.733Z,13.80
2023-05-15T22:21:15.226Z,13.63
2023-05-15T22:23:41.892Z,14.63
2023-05-15T22:26:08.458Z,20.43
2023-05-15T22:28:35.111Z,18.90
2023-05-15T22:31:01.685Z,15.77
2023-05-15T22:33:28.347Z,15.83
2023-05-15T22:35:55.049Z,16.20
2023-05-15T22:38:21.986Z,14.03
2023-05-15T22:40:52.497Z,15.47
2023-05-15T22:43:19.517Z,12.63
2023-05-15T22:45:46.231Z,16.87
2023-05-15T22:48:12.905Z,13.10
2023-05-15T22:50:39.636Z,14.60
2023-05-15T22:53:06.307Z,15.17
2023-05-15T22:55:33.014Z,20.17
2023-05-15T22:57:59.631Z,19.93
2023-05-15T23:00:26.474Z,12.97
2023-05-15T23:02:55.373Z,14.50
2023-05-15T23:05:22.495Z,15.93
2023-05-15T23:07:49.110Z,11.60
2023-05-15T23:10:15.788Z,14.80
2023-05-15T23:12:42.531Z,15.43
2023-05-15T23:15:12.213Z,17.47
2023-05-15T23:17:39.245Z,11.30
2023-05-15T23:20:13.563Z,12.67
2023-05-15T23:22:40.488Z,16.20
2023-05-15T23:25:07.526Z,15.40
2023-05-15T23:27:34.285Z,10.70
2023-05-15T23:30:01.839Z,13.47
2023-05-15T23:32:28.557Z,13.33
2023-05-15T23:34:55.658Z,14.13
2023-05-15T23:37:22.465Z,16.77
2023-05-15T23:39:49.154Z,10.07
2023-05-15T23:42:16.012Z,10.40
2023-05-15T23:44:42.714Z,13.13
2023-05-15T23:47:09.401Z,13.37
2023-05-15T23:49:36.302Z,11.33
2023-05-15T23:52:02.992Z,13.27
2023-05-15T23:54:29.669Z,10.63
2023-05-15T23:56:56.319Z,12.00
2023-05-15T23:59:23.044Z,15.73
